Pfugerville's Hourly Summary for Sunday, April 16, 2017
Hour Temp
(f)
RH
(%)
Solar Rad.
(MJ/m2)
Rainfall
(in)
Wind
(mph)
4/16/2017 12:00 AM 69 99 0 0 5.3
4/16/2017 1:00 AM 69 100 0 0 7.67
4/16/2017 2:00 AM 69 100 0 0 8.33
4/16/2017 3:00 AM 69 100 0 0 6.42
4/16/2017 4:00 AM 68 100 0 0 6.12
4/16/2017 5:00 AM 68 100 0 0 6.06
4/16/2017 6:00 AM 67 100 0 0 5.19
4/16/2017 7:00 AM 67 100 0 0 5.39
4/16/2017 8:00 AM 66 100 0.09 0 4.66
4/16/2017 9:00 AM 68 100 0.51 0 6.29
4/16/2017 10:00 AM 71 100 0.89 0 8.87
4/16/2017 11:00 AM 72 100 1.1 0 9.06
4/16/2017 12:00 PM 75 97 1.6 0 9.96
4/16/2017 1:00 PM 77 89 2.37 0 10
4/16/2017 2:00 PM 77 85 1.38 0 8.29
4/16/2017 3:00 PM 79 76 2.31 0 8.47
4/16/2017 4:00 PM 80 74 1.94 0 8.21
4/16/2017 5:00 PM 81 74 1.86 0 7.76
4/16/2017 6:00 PM 81 78 1.02 0 4.72
4/16/2017 7:00 PM 79 77 0.43 0 6.41
4/16/2017 8:00 PM 77 88 0.13 0 7.32
4/16/2017 9:00 PM 74 93 0 0 6.48
4/16/2017 10:00 PM 72 99 0 0 5.55
4/16/2017 11:00 PM 70 100 0 0 2.98
Data Summary 72 92 15.63 0.00 6.90